Orto / Ocaso: 07:07 / 17:01 UTC (Datos para LEAX 27-11-2020)

[fuente: ADDS]

METAR:


LEMG 271030Z 29005KT 260V320 9999 FEW030 14/09 Q1006 NOSIG =
TAF LEMG 270500Z 2706/2806 29006KT 9999 SCT035 SCT060 TX18/2712Z TN11/2706Z BECMG 2710/2712 16005KT PROB30 TEMPO 2713/2718 4000 SHRA SCT030TCU BECMG 2717/2719 29007KT LEGR 271030Z 00000KT 9999 FEW030 SCT040 BKN070 08/08 Q1006 =
TAF LEGR 270800Z 2709/2809 27005KT 9999 SCT035 TX12/2714Z TN04/2807Z PROB30 TEMPO 2712/2718 4000 SHRA SCT030TCU PROB40 TEMPO 2723/2808 3000 BR BKN005 LEZL 271030Z 00000KT 9999 SCT045 12/09 Q1008 NOSIG =
TAF LEZL 270800Z 2709/2809 24005KT 9999 SCT035 TX15/2714Z TN09/2807Z PROB30 TEMPO 2713/2717 4000 SHRA SCT030TCU PROB40 TEMPO 2801/2809 3000 BR BKN006 LEAM 271030Z 09003KT 040V180 9999 SCT030 15/12 Q1006 =
TAF LEAM 270800Z 2709/2809 25008KT 9999 SCT030 TX17/2713Z TN11/2806Z PROB40 TEMPO 2709/2712 4000 SHRA SCT025TCU BKN040 BECMG 2800/2802 34010KT LEBA 271030Z 22006KT 7000 FEW008 OVC040 11/09 Q1007 =
TAF LEBA 270800Z 2709/2809 25005KT 9999 SCT030 TX13/2714Z TN08/2807Z PROB40 TEMPO 2718/2809 BKN010 LEJR 271030Z 15004KT 090V220 CAVOK 15/10 Q1007 =
TAF LEJR 270500Z 2706/2806 16006KT 9999 SCT025 TX15/2714Z TN07/2806Z PROB30 TEMPO 2706/2715 4000 SHRA SCT020TCU GEML 271030Z 25009KT 200V310 9999 FEW020 15/08 Q1007 =
TAF GEML 270800Z 2709/2809 25008KT 9999 SCT030 TX17/2713Z TN12/2806Z PROB30 TEMPO 2719/2802 4000 SHRA SCT025TCU LXGB 271020Z 22010KT 9999 FEW028 SCT045 14/08 Q1007 NOSIG RMK BLU BLU =
TAF LXGB 270727Z 2709/2718 VRB05KT 9999 FEW040 TEMPO 2709/2718 7000 -SHRA SCT022 PROB40 TEMPO 2709/2716 4000 SHRA SCT014TCU PROB30 TEMPO 2709/2716 3000 TSRA FEW006 BKN012CB BECMG 2710/2712 28010KT

TAFOR:


TAF LEMG 270500Z 2706/2806 29006KT 9999 SCT035 SCT060 TX18/2712Z TN11/2706Z BECMG 2710/2712 16005KT PROB30 TEMPO 2713/2718 4000 SHRA SCT030TCU BECMG 2717/2719 29007KT =
TAF LEGR 270800Z 2709/2809 27005KT 9999 SCT035 TX12/2714Z TN04/2807Z PROB30 TEMPO 2712/2718 4000 SHRA SCT030TCU PROB40 TEMPO 2723/2808 3000 BR BKN005 =
TAF LEZL 270800Z 2709/2809 24005KT 9999 SCT035 TX15/2714Z TN09/2807Z PROB30 TEMPO 2713/2717 4000 SHRA SCT030TCU PROB40 TEMPO 2801/2809 3000 BR BKN006 =
TAF LEAM 270800Z 2709/2809 25008KT 9999 SCT030 TX17/2713Z TN11/2806Z PROB40 TEMPO 2709/2712 4000 SHRA SCT025TCU BKN040 BECMG 2800/2802 34010KT =
TAF LEBA 270800Z 2709/2809 25005KT 9999 SCT030 TX13/2714Z TN08/2807Z PROB40 TEMPO 2718/2809 BKN010 =
TAF LEJR 270500Z 2706/2806 16006KT 9999 SCT025 TX15/2714Z TN07/2806Z PROB30 TEMPO 2706/2715 4000 SHRA SCT020TCU =
TAF GEML 270800Z 2709/2809 25008KT 9999 SCT030 TX17/2713Z TN12/2806Z PROB30 TEMPO 2719/2802 4000 SHRA SCT025TCU =
TAF LXGB 270727Z 2709/2718 VRB05KT 9999 FEW040 TEMPO 2709/2718 7000 -SHRA SCT022 PROB40 TEMPO 2709/2716 4000 SHRA SCT014TCU PROB30 TEMPO 2709/2716 3000 TSRA FEW006 BKN012CB BECMG 2710/2712 28010KT =

Recuerde que, aunque regularmente actualizada, la información meteorológica aquí presentada no debe ser utilizada para la planificación de vuelos. Si lo desea, puede consultar la información meteorológica adecuada, tanto de aeródromos como en ruta, por las vías oficialmente establecidas en la legislación -> AQUí

Utilizamos "cookies" propias y de terceros para analizar nuestros servicios, medir las audiencias, personalizar el contenido que ofrecemos y mostrar información adaptada a sus intereses mediante la obtención de los datos necesarios para perfilar sus hábitos de navegación e inferir grupos de interés, siempre de modo anónimo. Si continúa utilizando el sitio web AEROCLUBMALAGA.COM, significa que acepta sus términos y condiciones y el uso de "cookies" al utilizar el sitio web y nuestros servicios. Asimismo, podemos utilizar fuentes de datos externas para elaborar estos grupos de interés, así compartir los análisis de navegación y los grupos de interés inferidos con terceros con el objetivo de personalizar los contenidos. Para obtener más información sobre las cookies que utilizamos y cómo eliminarlas, consulte nuestra política de privacidad.

Acepto las cookies de esta página web.
EU Cookie Directive plugin by www.channeldigital.co.uk